createdAt,value
2022-12-29T00:00:54.494Z,-2.36
2022-12-29T00:03:58.241Z,-2.50
2022-12-29T00:07:06.528Z,-2.54
2022-12-29T00:10:19.948Z,-2.63
2022-12-29T00:13:42.378Z,-2.66
2022-12-29T00:16:46.407Z,-2.66
2022-12-29T00:20:28.001Z,-2.75
2022-12-29T00:23:50.199Z,-2.70
2022-12-29T00:27:24.251Z,-2.55
2022-12-29T00:30:47.632Z,-2.52
2022-12-29T06:47:25.548Z,-3.03
2022-12-29T06:50:37.295Z,-2.82
2022-12-29T06:53:40.057Z,-2.81
2022-12-29T06:56:45.240Z,-2.82
2022-12-29T06:59:52.062Z,-2.77
2022-12-29T07:02:59.899Z,-2.60
2022-12-29T07:06:05.418Z,-2.53
2022-12-29T07:09:09.738Z,-2.55
2022-12-29T07:12:12.582Z,-2.48
2022-12-29T07:15:18.800Z,-2.28
2022-12-29T07:18:25.895Z,-1.92
2022-12-29T07:21:29.031Z,-1.90
2022-12-29T07:24:32.849Z,-1.80
2022-12-29T07:27:39.736Z,-1.90
2022-12-29T07:31:02.507Z,-1.85
2022-12-29T07:34:05.987Z,-1.34
2022-12-29T07:37:17.648Z,-1.18
2022-12-29T07:40:22.441Z,-1.08
2022-12-29T07:43:25.799Z,-1.00
2022-12-29T07:46:55.051Z,-0.13
2022-12-29T07:49:52.066Z,0.13
2022-12-29T07:53:04.207Z,0.24
2022-12-29T07:56:07.293Z,0.32
2022-12-29T07:59:18.788Z,0.32
2022-12-29T08:02:28.469Z,-0.09
2022-12-29T08:05:35.428Z,-0.27
2022-12-29T08:08:46.874Z,-0.55
2022-12-29T08:11:50.297Z,-0.85
2022-12-29T08:14:53.020Z,-0.27
2022-12-29T08:17:56.076Z,-0.38
2022-12-29T08:21:19.932Z,-0.36
2022-12-29T08:24:23.615Z,-0.70
2022-12-29T08:27:27.527Z,-0.61
2022-12-29T08:30:30.801Z,-0.57
2022-12-29T08:33:34.061Z,-0.55
2022-12-29T08:36:37.702Z,-0.57
2022-12-29T08:39:48.522Z,-0.51
2022-12-29T08:42:53.885Z,-0.55
2022-12-29T08:46:17.733Z,-0.51
2022-12-29T08:49:21.442Z,-0.65
2022-12-29T08:52:25.707Z,-0.17
2022-12-29T08:55:37.600Z,-0.02
2022-12-29T08:58:40.516Z,-0.15
2022-12-29T09:01:43.817Z,-0.06
2022-12-29T09:04:50.497Z,-0.03
2022-12-29T09:08:01.790Z,-0.26
2022-12-29T09:11:19.029Z,-0.41
2022-12-29T09:14:33.498Z,-0.34
2022-12-29T09:17:56.382Z,-0.34
2022-12-29T09:21:05.745Z,-0.45
2022-12-29T09:24:08.886Z,-0.28
2022-12-29T09:27:17.050Z,-0.41
2022-12-29T09:30:40.449Z,-0.26
2022-12-29T09:33:44.056Z,0.24
2022-12-29T09:36:46.815Z,0.45
2022-12-29T09:39:57.819Z,0.95
2022-12-29T09:43:39.260Z,1.00
2022-12-29T09:47:02.835Z,1.14
2022-12-29T09:50:18.381Z,0.97
2022-12-29T09:54:02.096Z,1.13
2022-12-29T09:57:24.562Z,0.85
2022-12-29T10:01:02.784Z,0.92
2022-12-29T10:04:06.526Z,0.88
2022-12-29T10:07:34.529Z,0.85
2022-12-29T10:10:50.312Z,0.78
2022-12-29T10:14:13.894Z,1.10
2022-12-29T10:17:40.087Z,1.11
2022-12-29T10:20:53.587Z,1.13
2022-12-29T10:24:03.349Z,1.04
2022-12-29T10:27:12.551Z,1.15
2022-12-29T10:30:16.955Z,1.23
2022-12-29T10:33:38.821Z,1.40
2022-12-29T10:36:49.879Z,1.37
2022-12-29T10:39:54.752Z,1.32
2022-12-29T10:43:45.989Z,1.48
2022-12-29T10:47:01.211Z,1.60
2022-12-29T10:50:26.630Z,1.66
2022-12-29T10:54:03.239Z,1.59
2022-12-29T10:57:32.400Z,1.54
2022-12-29T11:00:35.680Z,1.34
2022-12-29T11:03:49.164Z,1.39
2022-12-29T11:06:52.888Z,1.24
2022-12-29T11:09:56.206Z,1.38
2022-12-29T11:13:05.596Z,1.52
2022-12-29T11:16:13.057Z,1.53
2022-12-29T11:19:27.167Z,1.72
2022-12-29T11:22:50.132Z,1.91
2022-12-29T11:26:11.236Z,1.86
2022-12-29T11:29:44.687Z,1.96
2022-12-29T11:32:55.572Z,1.98
2022-12-29T11:36:23.317Z,2.17
2022-12-29T11:40:10.615Z,1.92
2022-12-29T11:43:24.004Z,2.02
2022-12-29T11:46:33.907Z,2.18
2022-12-29T11:49:37.256Z,2.24
2022-12-29T11:52:40.682Z,2.34
2022-12-29T11:56:01.965Z,2.29
2022-12-29T11:59:35.308Z,2.28
2022-12-29T12:02:46.942Z,2.36
2022-12-29T12:06:17.131Z,2.44
2022-12-29T12:09:27.879Z,2.52
2022-12-29T12:12:47.908Z,2.47
2022-12-29T12:16:05.180Z,2.60
2022-12-29T12:19:33.715Z,2.71
2022-12-29T12:22:46.583Z,2.56
2022-12-29T12:25:53.699Z,2.60
2022-12-29T12:29:47.471Z,2.62
2022-12-29T12:33:09.418Z,2.57
2022-12-29T12:37:00.849Z,2.78
2022-12-29T12:40:46.280Z,2.89
2022-12-29T12:43:52.966Z,2.89
2022-12-29T12:47:47.528Z,3.05
2022-12-29T12:51:01.390Z,2.97
2022-12-29T12:54:19.700Z,2.97
2022-12-29T12:57:48.719Z,2.98
2022-12-29T13:01:20.267Z,3.01
2022-12-29T13:04:53.803Z,3.16
2022-12-29T13:08:13.946Z,3.24
2022-12-29T13:11:52.743Z,3.20
2022-12-29T13:15:51.470Z,3.25
2022-12-29T13:19:11.970Z,3.08
2022-12-29T13:22:21.533Z,3.06
2022-12-29T13:25:49.408Z,3.18
2022-12-29T13:28:59.235Z,3.18
2022-12-29T13:32:33.833Z,3.33
2022-12-29T13:36:23.466Z,3.24
2022-12-29T13:39:33.085Z,3.31
2022-12-29T13:42:36.743Z,3.38
2022-12-29T13:45:41.726Z,3.12
2022-12-29T13:48:51.679Z,3.38
2022-12-29T13:51:58.771Z,3.27
2022-12-29T13:55:21.118Z,3.39
2022-12-29T13:58:42.978Z,3.22
2022-12-29T14:02:05.703Z,3.35
2022-12-29T14:05:21.039Z,3.39
2022-12-29T14:08:36.469Z,3.22
2022-12-29T14:11:59.996Z,3.21
2022-12-29T14:55:50.972Z,2.28
2022-12-29T14:59:01.789Z,1.97
2022-12-29T15:02:19.936Z,2.16
2022-12-29T15:05:32.019Z,1.26
2022-12-29T15:09:43.870Z,1.60
2022-12-29T15:12:55.174Z,1.24
2022-12-29T15:15:58.494Z,1.00
2022-12-29T15:19:06.675Z,1.34
2022-12-29T15:22:13.641Z,1.22
2022-12-29T15:25:19.145Z,1.05
2022-12-29T15:28:26.118Z,1.21
2022-12-29T15:31:31.053Z,1.14
2022-12-29T15:34:35.888Z,0.79
2022-12-29T15:37:40.973Z,0.88
2022-12-29T15:40:47.442Z,1.00
2022-12-29T15:44:00.089Z,0.72
2022-12-29T15:47:24.493Z,0.77
2022-12-29T15:50:38.155Z,0.77
2022-12-29T15:53:51.972Z,0.77
2022-12-29T15:56:55.204Z,0.40
2022-12-29T16:00:02.850Z,0.38
2022-12-29T16:03:16.361Z,0.59
2022-12-29T16:06:30.627Z,0.21
2022-12-29T16:09:42.747Z,-0.05
2022-12-29T16:12:46.777Z,0.11
2022-12-29T16:15:56.028Z,-0.22
2022-12-29T16:19:34.315Z,-0.08
2022-12-29T16:23:00.656Z,0.02
2022-12-29T16:26:18.412Z,-0.06
2022-12-29T16:29:22.885Z,0.18
2022-12-29T16:32:49.174Z,0.26
2022-12-29T16:35:51.896Z,-0.10
2022-12-29T16:39:13.805Z,-0.20
2022-12-29T16:42:51.295Z,-0.36
2022-12-29T16:46:31.402Z,-0.65
2022-12-29T16:49:55.264Z,-0.75
2022-12-29T16:52:58.642Z,-0.75
2022-12-29T16:56:19.581Z,-0.87
2022-12-29T16:59:31.980Z,-0.88
2022-12-29T17:02:45.640Z,-0.86
2022-12-29T17:05:54.034Z,-0.61
2022-12-29T17:09:33.642Z,-0.79
2022-12-29T17:12:37.954Z,-0.95
2022-12-29T17:15:44.998Z,-0.82
2022-12-29T17:18:58.245Z,-0.93
2022-12-29T17:22:02.323Z,-0.98
2022-12-29T17:25:05.385Z,-0.92
2022-12-29T17:28:27.096Z,-0.87
2022-12-29T17:31:30.001Z,-0.48
2022-12-29T17:34:41.995Z,-0.60
2022-12-29T17:37:45.416Z,-0.63
2022-12-29T17:40:49.003Z,-0.54
2022-12-29T17:43:54.427Z,-0.55
2022-12-29T17:47:01.511Z,-0.53
2022-12-29T17:50:17.256Z,-0.32
2022-12-29T17:53:40.779Z,-0.44
2022-12-29T17:56:43.635Z,-0.53
2022-12-29T17:59:46.815Z,-0.59
2022-12-29T18:02:50.325Z,-0.72
2022-12-29T18:05:59.534Z,-0.77
2022-12-29T18:09:03.262Z,-0.73
2022-12-29T18:12:24.217Z,-0.77
2022-12-29T18:15:31.875Z,-0.85
2022-12-29T18:18:35.005Z,-1.01
2022-12-29T18:21:59.630Z,-1.05
2022-12-29T18:25:35.760Z,-1.15
2022-12-29T18:28:39.056Z,-1.06
2022-12-29T18:31:42.966Z,-1.28
2022-12-29T18:34:54.625Z,-1.22
2022-12-29T18:38:00.051Z,-1.13
2022-12-29T18:41:05.974Z,-1.05
2022-12-29T18:44:13.232Z,-1.09
2022-12-29T18:47:16.148Z,-0.88
2022-12-29T18:50:20.041Z,-0.72
2022-12-29T18:53:25.651Z,-0.68
2022-12-29T18:56:35.513Z,-0.44
2022-12-29T18:59:39.119Z,-0.34
2022-12-29T19:02:52.676Z,-0.35
2022-12-29T19:06:15.595Z,-0.48
2022-12-29T19:09:19.494Z,-0.58
2022-12-29T19:12:26.540Z,-0.53
2022-12-29T19:15:35.586Z,-0.56
2022-12-29T19:18:44.562Z,-0.50
2022-12-29T19:22:19.690Z,-0.78
2022-12-29T19:25:43.198Z,-0.56
2022-12-29T19:28:48.241Z,-0.68
2022-12-29T19:31:52.844Z,-0.86
2022-12-29T19:34:56.525Z,-0.66
2022-12-29T19:38:20.199Z,-0.87
2022-12-29T19:41:32.334Z,-0.82
2022-12-29T19:44:35.202Z,-1.06
2022-12-29T19:48:19.977Z,-1.14
2022-12-29T19:51:22.888Z,-0.90
2022-12-29T19:54:26.361Z,-1.24
2022-12-29T19:57:29.955Z,-1.10
2022-12-29T20:00:53.484Z,-1.17
2022-12-29T20:04:02.960Z,-1.42
2022-12-29T20:07:26.042Z,-1.45
2022-12-29T20:10:30.557Z,-1.39
2022-12-29T20:13:34.586Z,-1.00
2022-12-29T20:16:54.694Z,-1.44
2022-12-29T20:20:01.539Z,-1.20
2022-12-29T20:23:12.834Z,-1.24
2022-12-29T20:26:19.021Z,-1.37
2022-12-29T20:29:23.003Z,-1.12
2022-12-29T20:32:26.240Z,-1.35
2022-12-29T20:35:35.645Z,-1.38
2022-12-29T20:38:39.546Z,-1.66
2022-12-29T20:41:46.471Z,-1.81
2022-12-29T20:44:50.921Z,-1.72
2022-12-29T20:47:54.824Z,-1.79
2022-12-29T20:51:01.086Z,-1.87
2022-12-29T20:54:07.914Z,-1.88
2022-12-29T20:57:11.098Z,-1.88
2022-12-29T21:00:20.578Z,-1.89
2022-12-29T21:03:25.862Z,-1.88
2022-12-29T21:06:29.081Z,-2.02
2022-12-29T21:09:32.370Z,-2.01
2022-12-29T21:12:55.572Z,-2.03
2022-12-29T21:16:01.476Z,-1.89
2022-12-29T21:19:05.719Z,-1.67
2022-12-29T21:22:09.259Z,-1.47
2022-12-29T21:25:12.654Z,-1.51
2022-12-29T21:28:39.499Z,-1.38
2022-12-29T21:31:50.961Z,-1.28
2022-12-29T21:34:54.049Z,-1.20
2022-12-29T21:38:03.081Z,-0.82
2022-12-29T21:41:12.385Z,-0.74
2022-12-29T21:44:34.485Z,-0.81
2022-12-29T21:47:55.927Z,-0.84
2022-12-29T21:51:39.353Z,-0.78
2022-12-29T21:55:00.227Z,-0.89
2022-12-29T21:58:22.015Z,-0.87
2022-12-29T22:01:45.114Z,-0.95
2022-12-29T22:05:07.770Z,-0.96
2022-12-29T22:08:29.373Z,-0.95
2022-12-29T22:11:51.094Z,-0.95
2022-12-29T22:14:55.659Z,-0.94
2022-12-29T22:17:59.379Z,-0.90
2022-12-29T22:21:11.915Z,-0.95
2022-12-29T22:24:18.687Z,-0.86
2022-12-29T22:27:21.479Z,-0.82
2022-12-29T22:30:29.469Z,-0.83
2022-12-29T22:33:33.695Z,-0.59
2022-12-29T22:36:36.780Z,-0.55
2022-12-29T22:39:39.583Z,-0.44
2022-12-29T22:42:43.030Z,-0.34
2022-12-29T22:45:50.195Z,-0.46
2022-12-29T22:49:10.093Z,-0.39
2022-12-29T22:52:14.628Z,-0.23
2022-12-29T22:55:17.726Z,-0.19
2022-12-29T22:58:29.539Z,-0.36
2022-12-29T23:01:53.194Z,-0.31
2022-12-29T23:05:03.543Z,-0.15
2022-12-29T23:08:24.724Z,-0.27
2022-12-29T23:11:32.320Z,-0.35
2022-12-29T23:14:55.263Z,-0.31
2022-12-29T23:17:57.969Z,-0.21
2022-12-29T23:21:01.383Z,-0.23
2022-12-29T23:24:04.399Z,-0.15
2022-12-29T23:27:08.372Z,-0.15
2022-12-29T23:30:11.894Z,-0.06
2022-12-29T23:33:16.026Z,-0.14
2022-12-29T23:36:39.344Z,0.15
2022-12-29T23:39:42.792Z,0.31
2022-12-29T23:43:05.651Z,0.25
2022-12-29T23:46:11.704Z,0.17
2022-12-29T23:49:14.776Z,0.35
2022-12-29T23:52:19.058Z,0.39
2022-12-29T23:55:26.038Z,0.48
2022-12-29T23:58:30.675Z,0.20
